Portelandia, Brazil
Current Conditions -  °F | °C
As of 3:00 AM on Saturday 20 Dec 2014 (Local Time) from SBGO Reporting Station
Scattered Clouds Scattered Clouds  
Wind Chill: 73°   Ceiling: Unl
Heat Index: 73°   Visibility: 6mi
Dew Point: 66°   Wind: 3mph
Humidity: 78%   Direction: 40°NE
Pressure: 29.91"   Gusts: NA
Location:  17.35°S, 52.68°W
Report Text: SBGO 200500Z 04003KT 9999 FEW040 SCT100 23/19 Q1013
Loading
Personal Weather Stations






























Interactive Weather Map New forecast layout! Learn more

10-Day Weather Forecast

Advertisements
Track Severe Weather on mobile